ジッダ の空港の天気 - METARとTAF

キング・アブドゥルアズィーズ国際空港(ジッダ) ( OEJN / JED ) - サウジアラビア ジッダ
飛行場実況気象(Metar)
観測時間01/20 07:00 AST (01/20 04:00 UTC)
風向・風速北北東 4m/s
視程-
天気現象
少しの雲 雲底高度 910m
気温19℃
湿度52%
気圧1017hPa
METAROEJN 200400Z 03008KT FEW030 19/09 Q1017 NOSIG
過去の天気等 Google飛行場航空写真 Wunderground天気予報

過去48時間のMETAR

飛行場予報(TAF)
発表時間: 1/20 02:00 AST (1/19 23:00 UTC)
予報対象時間: 20日3時 AST ~ 21日9時 AST
風向・風速北北東 4m/s
視程7,000m
なし
20日9時 AST ~ 20日11時 AST に徐々に
風向・風速北北西 4m/s 瞬間風速 9m/s
TAF OEJN 192300Z 2000/2106 02008KT 7000 NSC
BECMG 2006/2008 33008G18KT